Terminal Aerodrome Forecast
Issued by NWS Green Bay, WI

Home | Current Version | Previous Version | Text Only | Print | Product List | Glossary Off
Versions: 1 2 3 4 5 6 7 8 9 10 11 12 13 14 15 16 17 18 19 20 21 22 23 24 25 26 27 28

000
FTUS43 KGRB 020942 AAA
TAFGRB
TAF AMD
KGRB 020942Z 0210/0306 VRB03KT P6SM SKC
      TEMPO 0210/0212 3SM BR
     FM021300 07006KT P6SM SKC
     FM022300 13005KT P6SM SKC=

USA.gov is the U.S. government's official web portal to all federal, state and local government web resources and services.